sensor_id;sensor_type;location;lat;lon;timestamp;temperature;humidity
35111;DHT22;21290;50.158;8.658;2023-01-01T00:01:20;13.30;99.90
35111;DHT22;21290;50.158;8.658;2023-01-01T00:03:50;13.10;99.90
35111;DHT22;21290;50.158;8.658;2023-01-01T00:06:17;12.80;99.90
35111;DHT22;21290;50.158;8.658;2023-01-01T00:08:43;12.60;99.90
35111;DHT22;21290;50.158;8.658;2023-01-01T00:11:10;12.50;99.90
35111;DHT22;21290;50.158;8.658;2023-01-01T00:13:37;12.40;99.90
35111;DHT22;21290;50.158;8.658;2023-01-01T00:16:05;12.30;99.90
35111;DHT22;21290;50.158;8.658;2023-01-01T00:18:32;12.20;99.90
35111;DHT22;21290;50.158;8.658;2023-01-01T00:21:05;12.10;99.90
35111;DHT22;21290;50.158;8.658;2023-01-01T00:23:32;12.10;99.90
35111;DHT22;21290;50.158;8.658;2023-01-01T00:25:59;12.10;99.90
35111;DHT22;21290;50.158;8.658;2023-01-01T00:28:26;12.10;99.90
35111;DHT22;21290;50.158;8.658;2023-01-01T00:30:52;12.10;99.90
35111;DHT22;21290;50.158;8.658;2023-01-01T00:33:19;12.10;99.90
35111;DHT22;21290;50.158;8.658;2023-01-01T00:35:46;12.00;99.90
35111;DHT22;21290;50.158;8.658;2023-01-01T00:38:13;11.90;99.90
35111;DHT22;21290;50.158;8.658;2023-01-01T00:40:39;11.80;99.90
35111;DHT22;21290;50.158;8.658;2023-01-01T00:43:06;11.70;99.90
35111;DHT22;21290;50.158;8.658;2023-01-01T00:45:32;11.70;99.90
35111;DHT22;21290;50.158;8.658;2023-01-01T00:47:59;11.70;99.90
35111;DHT22;21290;50.158;8.658;2023-01-01T00:50:25;11.60;99.90
35111;DHT22;21290;50.158;8.658;2023-01-01T00:52:52;11.60;99.90
35111;DHT22;21290;50.158;8.658;2023-01-01T00:55:18;11.60;99.90
35111;DHT22;21290;50.158;8.658;2023-01-01T00:57:45;11.60;99.90
35111;DHT22;21290;50.158;8.658;2023-01-01T01:00:12;11.50;99.90
35111;DHT22;21290;50.158;8.658;2023-01-01T01:02:38;11.50;99.90
35111;DHT22;21290;50.158;8.658;2023-01-01T01:05:05;11.40;99.90
35111;DHT22;21290;50.158;8.658;2023-01-01T01:07:34;11.40;99.90
35111;DHT22;21290;50.158;8.658;2023-01-01T01:10:00;11.30;99.90
35111;DHT22;21290;50.158;8.658;2023-01-01T01:12:27;11.20;99.90
35111;DHT22;21290;50.158;8.658;2023-01-01T01:14:53;11.20;99.90
35111;DHT22;21290;50.158;8.658;2023-01-01T01:17:20;11.30;99.90
35111;DHT22;21290;50.158;8.658;2023-01-01T01:19:46;11.30;99.90
35111;DHT22;21290;50.158;8.658;2023-01-01T01:22:13;11.40;99.90
35111;DHT22;21290;50.158;8.658;2023-01-01T01:24:39;11.40;99.90
35111;DHT22;21290;50.158;8.658;2023-01-01T01:27:06;11.40;99.90
35111;DHT22;21290;50.158;8.658;2023-01-01T01:29:32;11.40;99.90
35111;DHT22;21290;50.158;8.658;2023-01-01T01:31:59;11.60;99.90
35111;DHT22;21290;50.158;8.658;2023-01-01T01:34:25;11.60;99.90
35111;DHT22;21290;50.158;8.658;2023-01-01T01:36:54;11.70;99.90
35111;DHT22;21290;50.158;8.658;2023-01-01T01:39:20;11.90;99.90
35111;DHT22;21290;50.158;8.658;2023-01-01T01:41:47;11.90;99.90
35111;DHT22;21290;50.158;8.658;2023-01-01T01:46:59;12.10;99.90
35111;DHT22;21290;50.158;8.658;2023-01-01T01:49:28;12.20;99.90
35111;DHT22;21290;50.158;8.658;2023-01-01T01:51:55;12.20;99.90
35111;DHT22;21290;50.158;8.658;2023-01-01T01:54:22;12.20;99.90
35111;DHT22;21290;50.158;8.658;2023-01-01T01:56:58;12.30;99.90
35111;DHT22;21290;50.158;8.658;2023-01-01T01:59:28;12.20;99.90
35111;DHT22;21290;50.158;8.658;2023-01-01T02:01:55;12.30;99.90
35111;DHT22;21290;50.158;8.658;2023-01-01T02:04:22;12.30;99.90
35111;DHT22;21290;50.158;8.658;2023-01-01T02:06:49;12.30;99.90
35111;DHT22;21290;50.158;8.658;2023-01-01T02:09:16;12.30;99.90
35111;DHT22;21290;50.158;8.658;2023-01-01T02:11:43;12.30;99.90
35111;DHT22;21290;50.158;8.658;2023-01-01T02:14:09;12.30;99.90
35111;DHT22;21290;50.158;8.658;2023-01-01T02:16:42;12.20;99.90
35111;DHT22;21290;50.158;8.658;2023-01-01T02:19:16;12.20;99.90
35111;DHT22;21290;50.158;8.658;2023-01-01T02:24:39;12.00;99.90
35111;DHT22;21290;50.158;8.658;2023-01-01T02:27:17;12.00;99.90
35111;DHT22;21290;50.158;8.658;2023-01-01T02:29:53;11.80;99.90
35111;DHT22;21290;50.158;8.658;2023-01-01T02:32:22;11.80;99.90
35111;DHT22;21290;50.158;8.658;2023-01-01T02:34:51;11.70;99.90
35111;DHT22;21290;50.158;8.658;2023-01-01T02:37:20;11.60;99.90
35111;DHT22;21290;50.158;8.658;2023-01-01T02:39:50;11.50;99.90
35111;DHT22;21290;50.158;8.658;2023-01-01T02:42:18;11.50;99.90
35111;DHT22;21290;50.158;8.658;2023-01-01T02:44:47;11.40;99.90
35111;DHT22;21290;50.158;8.658;2023-01-01T02:47:17;11.30;99.90
35111;DHT22;21290;50.158;8.658;2023-01-01T02:50:07;11.30;99.90
35111;DHT22;21290;50.158;8.658;2023-01-01T02:52:43;11.20;99.90
35111;DHT22;21290;50.158;8.658;2023-01-01T02:55:24;11.10;99.90
35111;DHT22;21290;50.158;8.658;2023-01-01T02:58:35;11.10;99.90
35111;DHT22;21290;50.158;8.658;2023-01-01T03:01:04;11.00;99.90
35111;DHT22;21290;50.158;8.658;2023-01-01T03:03:37;11.00;99.90
35111;DHT22;21290;50.158;8.658;2023-01-01T03:06:06;11.00;99.90
35111;DHT22;21290;50.158;8.658;2023-01-01T03:11:20;10.90;99.90
35111;DHT22;21290;50.158;8.658;2023-01-01T03:13:53;10.90;99.90
35111;DHT22;21290;50.158;8.658;2023-01-01T03:16:26;11.00;99.90
35111;DHT22;21290;50.158;8.658;2023-01-01T03:18:57;11.10;99.90
35111;DHT22;21290;50.158;8.658;2023-01-01T03:24:21;11.30;99.90
35111;DHT22;21290;50.158;8.658;2023-01-01T03:26:50;11.40;99.90
35111;DHT22;21290;50.158;8.658;2023-01-01T03:29:18;11.50;99.90
35111;DHT22;21290;50.158;8.658;2023-01-01T03:31:46;11.60;99.90
35111;DHT22;21290;50.158;8.658;2023-01-01T03:34:16;11.60;99.90
35111;DHT22;21290;50.158;8.658;2023-01-01T03:36:46;11.70;99.90
35111;DHT22;21290;50.158;8.658;2023-01-01T03:39:16;11.80;99.90
35111;DHT22;21290;50.158;8.658;2023-01-01T03:46:52;11.80;99.90
35111;DHT22;21290;50.158;8.658;2023-01-01T03:49:19;11.80;99.90
35111;DHT22;21290;50.158;8.658;2023-01-01T03:54:42;11.80;99.90
35111;DHT22;21290;50.158;8.658;2023-01-01T03:57:12;11.80;99.90
35111;DHT22;21290;50.158;8.658;2023-01-01T03:59:48;11.70;99.90
35111;DHT22;21290;50.158;8.658;2023-01-01T04:02:18;11.70;99.90
35111;DHT22;21290;50.158;8.658;2023-01-01T04:04:47;11.70;99.90
35111;DHT22;21290;50.158;8.658;2023-01-01T04:07:14;11.60;99.90
35111;DHT22;21290;50.158;8.658;2023-01-01T04:09:42;11.60;99.90
35111;DHT22;21290;50.158;8.658;2023-01-01T04:12:10;11.60;99.90
35111;DHT22;21290;50.158;8.658;2023-01-01T04:14:38;11.60;99.90
35111;DHT22;21290;50.158;8.658;2023-01-01T04:17:06;11.60;99.90
35111;DHT22;21290;50.158;8.658;2023-01-01T04:19:33;11.60;99.90
35111;DHT22;21290;50.158;8.658;2023-01-01T04:22:00;11.60;99.90
35111;DHT22;21290;50.158;8.658;2023-01-01T04:24:27;11.60;99.90
35111;DHT22;21290;50.158;8.658;2023-01-01T04:26:53;11.70;99.90
35111;DHT22;21290;50.158;8.658;2023-01-01T04:29:20;11.60;99.90
35111;DHT22;21290;50.158;8.658;2023-01-01T04:31:47;11.60;99.90
35111;DHT22;21290;50.158;8.658;2023-01-01T04:34:14;11.50;99.90
35111;DHT22;21290;50.158;8.658;2023-01-01T04:36:41;11.60;99.90
35111;DHT22;21290;50.158;8.658;2023-01-01T04:39:07;11.50;99.90
35111;DHT22;21290;50.158;8.658;2023-01-01T04:41:34;11.50;99.90
35111;DHT22;21290;50.158;8.658;2023-01-01T04:44:00;11.50;99.90
35111;DHT22;21290;50.158;8.658;2023-01-01T04:46:27;11.50;99.90
35111;DHT22;21290;50.158;8.658;2023-01-01T04:48:54;11.50;99.90
35111;DHT22;21290;50.158;8.658;2023-01-01T04:51:20;11.40;99.90
35111;DHT22;21290;50.158;8.658;2023-01-01T04:53:47;11.40;99.90
35111;DHT22;21290;50.158;8.658;2023-01-01T04:56:16;11.40;99.90
35111;DHT22;21290;50.158;8.658;2023-01-01T04:58:43;11.30;99.90
35111;DHT22;21290;50.158;8.658;2023-01-01T05:01:14;11.30;99.90
35111;DHT22;21290;50.158;8.658;2023-01-01T05:03:40;11.20;99.90
35111;DHT22;21290;50.158;8.658;2023-01-01T05:06:08;11.20;99.90
35111;DHT22;21290;50.158;8.658;2023-01-01T05:08:35;11.10;99.90
35111;DHT22;21290;50.158;8.658;2023-01-01T05:11:03;11.10;99.90
35111;DHT22;21290;50.158;8.658;2023-01-01T05:13:30;11.10;99.90
35111;DHT22;21290;50.158;8.658;2023-01-01T05:15:56;11.10;99.90
35111;DHT22;21290;50.158;8.658;2023-01-01T05:18:27;11.10;99.90
35111;DHT22;21290;50.158;8.658;2023-01-01T05:20:57;11.00;99.90
35111;DHT22;21290;50.158;8.658;2023-01-01T05:23:52;10.90;99.90
35111;DHT22;21290;50.158;8.658;2023-01-01T05:26:43;10.90;99.90
35111;DHT22;21290;50.158;8.658;2023-01-01T05:33:07;10.80;99.90
35111;DHT22;21290;50.158;8.658;2023-01-01T05:35:53;10.70;99.90
35111;DHT22;21290;50.158;8.658;2023-01-01T05:38:20;10.70;99.90
35111;DHT22;21290;50.158;8.658;2023-01-01T05:40:46;10.70;99.90
35111;DHT22;21290;50.158;8.658;2023-01-01T05:43:13;10.70;99.90
35111;DHT22;21290;50.158;8.658;2023-01-01T05:45:41;10.80;99.90
35111;DHT22;21290;50.158;8.658;2023-01-01T05:48:07;10.90;99.90
35111;DHT22;21290;50.158;8.658;2023-01-01T05:50:34;11.00;99.90
35111;DHT22;21290;50.158;8.658;2023-01-01T05:53:00;11.00;99.90
35111;DHT22;21290;50.158;8.658;2023-01-01T05:55:27;11.10;99.90
35111;DHT22;21290;50.158;8.658;2023-01-01T05:57:54;11.20;99.90
35111;DHT22;21290;50.158;8.658;2023-01-01T06:00:20;11.30;99.90
35111;DHT22;21290;50.158;8.658;2023-01-01T06:02:47;11.30;99.90
35111;DHT22;21290;50.158;8.658;2023-01-01T06:05:15;11.40;99.90
35111;DHT22;21290;50.158;8.658;2023-01-01T06:07:41;11.40;99.90
35111;DHT22;21290;50.158;8.658;2023-01-01T06:10:13;11.50;99.90
35111;DHT22;21290;50.158;8.658;2023-01-01T06:12:40;11.40;99.90
35111;DHT22;21290;50.158;8.658;2023-01-01T06:15:07;11.40;99.90
35111;DHT22;21290;50.158;8.658;2023-01-01T06:17:33;11.40;99.90
35111;DHT22;21290;50.158;8.658;2023-01-01T06:20:00;11.40;99.90
35111;DHT22;21290;50.158;8.658;2023-01-01T06:22:26;11.40;99.90
35111;DHT22;21290;50.158;8.658;2023-01-01T06:24:53;11.30;99.90
35111;DHT22;21290;50.158;8.658;2023-01-01T06:27:19;11.30;99.90
35111;DHT22;21290;50.158;8.658;2023-01-01T06:29:46;11.30;99.90
35111;DHT22;21290;50.158;8.658;2023-01-01T06:32:12;11.20;99.90
35111;DHT22;21290;50.158;8.658;2023-01-01T06:34:39;11.10;99.90
35111;DHT22;21290;50.158;8.658;2023-01-01T06:37:05;11.10;99.90
35111;DHT22;21290;50.158;8.658;2023-01-01T06:39:32;11.00;99.90
35111;DHT22;21290;50.158;8.658;2023-01-01T06:41:59;11.00;99.90
35111;DHT22;21290;50.158;8.658;2023-01-01T06:44:25;11.00;99.90
35111;DHT22;21290;50.158;8.658;2023-01-01T06:46:52;10.90;99.90
35111;DHT22;21290;50.158;8.658;2023-01-01T06:49:18;10.90;99.90
35111;DHT22;21290;50.158;8.658;2023-01-01T06:51:45;10.80;99.90
35111;DHT22;21290;50.158;8.658;2023-01-01T06:54:11;10.90;99.90
35111;DHT22;21290;50.158;8.658;2023-01-01T06:56:38;10.90;99.90
35111;DHT22;21290;50.158;8.658;2023-01-01T06:59:05;10.90;99.90
35111;DHT22;21290;50.158;8.658;2023-01-01T07:01:32;10.80;99.90
35111;DHT22;21290;50.158;8.658;2023-01-01T07:04:00;10.80;99.90
35111;DHT22;21290;50.158;8.658;2023-01-01T07:06:27;10.80;99.90
35111;DHT22;21290;50.158;8.658;2023-01-01T07:08:54;10.80;99.90
35111;DHT22;21290;50.158;8.658;2023-01-01T07:11:21;10.80;99.90
35111;DHT22;21290;50.158;8.658;2023-01-01T07:13:48;10.70;99.90
35111;DHT22;21290;50.158;8.658;2023-01-01T07:16:16;10.70;99.90
35111;DHT22;21290;50.158;8.658;2023-01-01T07:18:42;10.70;99.90
35111;DHT22;21290;50.158;8.658;2023-01-01T07:21:28;10.60;99.90
35111;DHT22;21290;50.158;8.658;2023-01-01T07:23:56;10.60;99.90
35111;DHT22;21290;50.158;8.658;2023-01-01T07:26:23;10.60;99.90
35111;DHT22;21290;50.158;8.658;2023-01-01T07:28:50;10.50;99.90
35111;DHT22;21290;50.158;8.658;2023-01-01T07:31:16;10.50;99.90
35111;DHT22;21290;50.158;8.658;2023-01-01T07:33:43;10.50;99.90
35111;DHT22;21290;50.158;8.658;2023-01-01T07:36:09;10.40;99.90
35111;DHT22;21290;50.158;8.658;2023-01-01T07:38:36;10.40;99.90
35111;DHT22;21290;50.158;8.658;2023-01-01T07:41:03;10.40;99.90
35111;DHT22;21290;50.158;8.658;2023-01-01T07:43:29;10.40;99.90
35111;DHT22;21290;50.158;8.658;2023-01-01T07:45:56;10.40;99.90
35111;DHT22;21290;50.158;8.658;2023-01-01T07:48:23;10.40;99.90
35111;DHT22;21290;50.158;8.658;2023-01-01T07:50:50;10.50;99.90
35111;DHT22;21290;50.158;8.658;2023-01-01T07:53:16;10.50;99.90
35111;DHT22;21290;50.158;8.658;2023-01-01T07:55:43;10.60;99.90
35111;DHT22;21290;50.158;8.658;2023-01-01T07:58:11;10.60;99.90
35111;DHT22;21290;50.158;8.658;2023-01-01T08:00:38;10.70;99.90
35111;DHT22;21290;50.158;8.658;2023-01-01T08:03:05;10.80;99.90
35111;DHT22;21290;50.158;8.658;2023-01-01T08:05:32;10.90;99.90
35111;DHT22;21290;50.158;8.658;2023-01-01T08:08:01;11.00;99.90
35111;DHT22;21290;50.158;8.658;2023-01-01T08:10:27;11.10;99.90
35111;DHT22;21290;50.158;8.658;2023-01-01T08:12:59;11.20;99.90
35111;DHT22;21290;50.158;8.658;2023-01-01T08:15:26;11.40;99.90
35111;DHT22;21290;50.158;8.658;2023-01-01T08:17:56;11.60;99.90
35111;DHT22;21290;50.158;8.658;2023-01-01T08:20:23;11.70;99.90
35111;DHT22;21290;50.158;8.658;2023-01-01T08:22:50;11.80;99.90
35111;DHT22;21290;50.158;8.658;2023-01-01T08:25:16;12.00;99.90
35111;DHT22;21290;50.158;8.658;2023-01-01T08:27:43;12.20;99.90
35111;DHT22;21290;50.158;8.658;2023-01-01T08:30:10;12.50;99.90
35111;DHT22;21290;50.158;8.658;2023-01-01T08:32:37;12.70;99.90
35111;DHT22;21290;50.158;8.658;2023-01-01T08:35:03;12.90;99.90
35111;DHT22;21290;50.158;8.658;2023-01-01T08:37:30;13.10;99.90
35111;DHT22;21290;50.158;8.658;2023-01-01T08:39:57;13.30;99.90
35111;DHT22;21290;50.158;8.658;2023-01-01T08:42:23;13.50;99.90
35111;DHT22;21290;50.158;8.658;2023-01-01T08:44:50;13.60;99.90
35111;DHT22;21290;50.158;8.658;2023-01-01T08:47:17;13.70;99.90
35111;DHT22;21290;50.158;8.658;2023-01-01T08:49:44;13.60;99.90
35111;DHT22;21290;50.158;8.658;2023-01-01T08:52:10;13.70;99.90
35111;DHT22;21290;50.158;8.658;2023-01-01T08:54:37;13.90;99.90
35111;DHT22;21290;50.158;8.658;2023-01-01T08:57:04;14.10;99.90
35111;DHT22;21290;50.158;8.658;2023-01-01T08:59:30;14.40;99.90
35111;DHT22;21290;50.158;8.658;2023-01-01T09:01:57;14.40;99.90
35111;DHT22;21290;50.158;8.658;2023-01-01T09:04:25;14.40;99.90
35111;DHT22;21290;50.158;8.658;2023-01-01T09:06:51;14.40;99.90
35111;DHT22;21290;50.158;8.658;2023-01-01T09:09:18;14.70;99.90
35111;DHT22;21290;50.158;8.658;2023-01-01T09:11:49;14.80;99.90
35111;DHT22;21290;50.158;8.658;2023-01-01T09:14:15;14.70;99.90
35111;DHT22;21290;50.158;8.658;2023-01-01T09:16:42;14.40;99.90
35111;DHT22;21290;50.158;8.658;2023-01-01T09:19:09;14.20;99.90
35111;DHT22;21290;50.158;8.658;2023-01-01T09:21:36;14.10;99.90
35111;DHT22;21290;50.158;8.658;2023-01-01T09:24:03;14.10;99.90
35111;DHT22;21290;50.158;8.658;2023-01-01T09:26:29;14.00;99.90
35111;DHT22;21290;50.158;8.658;2023-01-01T09:28:56;13.80;99.90
35111;DHT22;21290;50.158;8.658;2023-01-01T09:31:23;13.70;99.90
35111;DHT22;21290;50.158;8.658;2023-01-01T09:33:50;13.60;99.90
35111;DHT22;21290;50.158;8.658;2023-01-01T09:38:49;13.40;99.90
35111;DHT22;21290;50.158;8.658;2023-01-01T09:41:22;13.40;99.90
35111;DHT22;21290;50.158;8.658;2023-01-01T09:44:02;13.40;99.90
35111;DHT22;21290;50.158;8.658;2023-01-01T09:46:32;13.40;99.90
35111;DHT22;21290;50.158;8.658;2023-01-01T09:49:00;13.40;99.90
35111;DHT22;21290;50.158;8.658;2023-01-01T09:51:30;13.40;99.90
35111;DHT22;21290;50.158;8.658;2023-01-01T09:54:06;13.40;99.90
35111;DHT22;21290;50.158;8.658;2023-01-01T09:56:36;13.40;99.90
35111;DHT22;21290;50.158;8.658;2023-01-01T09:59:07;13.40;99.90
35111;DHT22;21290;50.158;8.658;2023-01-01T10:04:17;13.60;99.90
35111;DHT22;21290;50.158;8.658;2023-01-01T10:10:12;13.90;99.90
35111;DHT22;21290;50.158;8.658;2023-01-01T10:12:36;14.10;99.90
35111;DHT22;21290;50.158;8.658;2023-01-01T10:15:13;14.20;99.90
35111;DHT22;21290;50.158;8.658;2023-01-01T10:17:45;14.30;99.90
35111;DHT22;21290;50.158;8.658;2023-01-01T10:20:21;14.20;99.90
35111;DHT22;21290;50.158;8.658;2023-01-01T10:22:54;14.10;99.90
35111;DHT22;21290;50.158;8.658;2023-01-01T10:25:26;14.00;99.90
35111;DHT22;21290;50.158;8.658;2023-01-01T10:27:58;14.00;99.90
35111;DHT22;21290;50.158;8.658;2023-01-01T10:30:25;14.00;99.90
35111;DHT22;21290;50.158;8.658;2023-01-01T10:32:52;14.00;99.90
35111;DHT22;21290;50.158;8.658;2023-01-01T10:35:21;14.00;99.90
35111;DHT22;21290;50.158;8.658;2023-01-01T10:37:56;14.00;99.90
35111;DHT22;21290;50.158;8.658;2023-01-01T10:40:23;14.00;99.90
35111;DHT22;21290;50.158;8.658;2023-01-01T10:42:52;14.00;99.90
35111;DHT22;21290;50.158;8.658;2023-01-01T10:45:27;14.00;99.90
35111;DHT22;21290;50.158;8.658;2023-01-01T10:48:11;14.00;99.90
35111;DHT22;21290;50.158;8.658;2023-01-01T10:50:51;14.00;99.90
35111;DHT22;21290;50.158;8.658;2023-01-01T10:56:02;14.00;99.90
35111;DHT22;21290;50.158;8.658;2023-01-01T11:01:03;13.90;99.90
35111;DHT22;21290;50.158;8.658;2023-01-01T11:03:30;13.90;99.90
35111;DHT22;21290;50.158;8.658;2023-01-01T11:06:01;13.90;99.90
35111;DHT22;21290;50.158;8.658;2023-01-01T11:08:29;13.90;99.90
35111;DHT22;21290;50.158;8.658;2023-01-01T11:10:59;14.00;99.90
35111;DHT22;21290;50.158;8.658;2023-01-01T11:13:26;14.10;99.90
35111;DHT22;21290;50.158;8.658;2023-01-01T11:15:54;14.30;99.90
35111;DHT22;21290;50.158;8.658;2023-01-01T11:18:28;14.50;99.90
35111;DHT22;21290;50.158;8.658;2023-01-01T11:21:01;14.70;99.90
35111;DHT22;21290;50.158;8.658;2023-01-01T11:23:29;14.90;99.90
35111;DHT22;21290;50.158;8.658;2023-01-01T11:25:57;15.00;99.90
35111;DHT22;21290;50.158;8.658;2023-01-01T11:28:24;15.20;99.90
35111;DHT22;21290;50.158;8.658;2023-01-01T11:31:10;15.40;99.90
35111;DHT22;21290;50.158;8.658;2023-01-01T11:33:51;15.40;99.90
35111;DHT22;21290;50.158;8.658;2023-01-01T11:38:49;15.50;99.90
35111;DHT22;21290;50.158;8.658;2023-01-01T11:41:16;15.50;99.90
35111;DHT22;21290;50.158;8.658;2023-01-01T11:43:43;15.80;99.90
35111;DHT22;21290;50.158;8.658;2023-01-01T11:46:13;16.40;99.90
35111;DHT22;21290;50.158;8.658;2023-01-01T11:48:42;16.80;99.90
35111;DHT22;21290;50.158;8.658;2023-01-01T11:51:26;17.00;99.90
35111;DHT22;21290;50.158;8.658;2023-01-01T11:53:54;17.30;99.90
35111;DHT22;21290;50.158;8.658;2023-01-01T11:56:32;17.30;99.90
35111;DHT22;21290;50.158;8.658;2023-01-01T11:59:01;17.10;99.90
35111;DHT22;21290;50.158;8.658;2023-01-01T12:04:08;16.40;99.90
35111;DHT22;21290;50.158;8.658;2023-01-01T12:09:10;15.80;99.90
35111;DHT22;21290;50.158;8.658;2023-01-01T12:11:51;15.60;99.90
35111;DHT22;21290;50.158;8.658;2023-01-01T12:14:19;15.50;99.90
35111;DHT22;21290;50.158;8.658;2023-01-01T12:16:51;15.40;99.90
35111;DHT22;21290;50.158;8.658;2023-01-01T12:19:25;15.40;99.90
35111;DHT22;21290;50.158;8.658;2023-01-01T12:21:53;15.30;99.90
35111;DHT22;21290;50.158;8.658;2023-01-01T12:24:22;15.20;99.90
35111;DHT22;21290;50.158;8.658;2023-01-01T12:34:29;15.30;99.90
35111;DHT22;21290;50.158;8.658;2023-01-01T12:45:06;15.40;99.90
35111;DHT22;21290;50.158;8.658;2023-01-01T12:50:18;15.40;99.90
35111;DHT22;21290;50.158;8.658;2023-01-01T13:00:31;15.20;99.90
35111;DHT22;21290;50.158;8.658;2023-01-01T13:03:05;15.20;99.90
35111;DHT22;21290;50.158;8.658;2023-01-01T13:05:35;15.20;99.90
35111;DHT22;21290;50.158;8.658;2023-01-01T13:08:03;15.20;99.90
35111;DHT22;21290;50.158;8.658;2023-01-01T13:13:02;15.30;99.90
35111;DHT22;21290;50.158;8.658;2023-01-01T13:20:39;15.40;99.90
35111;DHT22;21290;50.158;8.658;2023-01-01T13:26:26;15.40;99.90
35111;DHT22;21290;50.158;8.658;2023-01-01T13:28:37;15.30;99.90
35111;DHT22;21290;50.158;8.658;2023-01-01T13:31:04;15.30;99.90
35111;DHT22;21290;50.158;8.658;2023-01-01T13:33:30;15.30;99.90
35111;DHT22;21290;50.158;8.658;2023-01-01T13:43:53;15.10;99.90
35111;DHT22;21290;50.158;8.658;2023-01-01T13:51:44;14.90;99.90
35111;DHT22;21290;50.158;8.658;2023-01-01T13:54:39;14.90;99.90
35111;DHT22;21290;50.158;8.658;2023-01-01T14:00:03;14.80;99.90
35111;DHT22;21290;50.158;8.658;2023-01-01T14:04:59;14.70;99.90
35111;DHT22;21290;50.158;8.658;2023-01-01T14:10:51;14.70;99.90
35111;DHT22;21290;50.158;8.658;2023-01-01T14:13:14;14.70;99.90
35111;DHT22;21290;50.158;8.658;2023-01-01T14:18:14;14.60;99.90
35111;DHT22;21290;50.158;8.658;2023-01-01T14:20:48;14.60;99.90
35111;DHT22;21290;50.158;8.658;2023-01-01T14:23:17;14.60;99.90
35111;DHT22;21290;50.158;8.658;2023-01-01T14:25:45;14.60;99.90
35111;DHT22;21290;50.158;8.658;2023-01-01T14:28:14;14.60;99.90
35111;DHT22;21290;50.158;8.658;2023-01-01T14:30:42;14.60;99.90
35111;DHT22;21290;50.158;8.658;2023-01-01T14:33:18;14.70;99.90
35111;DHT22;21290;50.158;8.658;2023-01-01T14:35:56;14.60;99.90
35111;DHT22;21290;50.158;8.658;2023-01-01T14:38:26;14.60;99.90
35111;DHT22;21290;50.158;8.658;2023-01-01T14:41:10;14.60;99.90
35111;DHT22;21290;50.158;8.658;2023-01-01T14:43:39;14.50;99.90
35111;DHT22;21290;50.158;8.658;2023-01-01T14:46:06;14.50;99.90
35111;DHT22;21290;50.158;8.658;2023-01-01T14:48:36;14.50;99.90
35111;DHT22;21290;50.158;8.658;2023-01-01T14:51:07;14.50;99.90
35111;DHT22;21290;50.158;8.658;2023-01-01T14:53:36;14.40;99.90
35111;DHT22;21290;50.158;8.658;2023-01-01T14:56:03;14.40;99.90
35111;DHT22;21290;50.158;8.658;2023-01-01T14:58:32;14.40;99.90
35111;DHT22;21290;50.158;8.658;2023-01-01T15:01:15;14.40;99.90
35111;DHT22;21290;50.158;8.658;2023-01-01T15:03:58;14.30;99.90
35111;DHT22;21290;50.158;8.658;2023-01-01T15:06:25;14.20;99.90
35111;DHT22;21290;50.158;8.658;2023-01-01T15:08:52;14.20;99.90
35111;DHT22;21290;50.158;8.658;2023-01-01T15:11:19;14.20;99.90
35111;DHT22;21290;50.158;8.658;2023-01-01T15:14:03;14.20;99.90
35111;DHT22;21290;50.158;8.658;2023-01-01T15:16:29;14.20;99.90
35111;DHT22;21290;50.158;8.658;2023-01-01T15:19:15;14.20;99.90
35111;DHT22;21290;50.158;8.658;2023-01-01T15:21:43;14.20;99.90
35111;DHT22;21290;50.158;8.658;2023-01-01T15:24:13;14.20;99.90
35111;DHT22;21290;50.158;8.658;2023-01-01T15:26:41;14.10;99.90
35111;DHT22;21290;50.158;8.658;2023-01-01T15:29:14;14.10;99.90
35111;DHT22;21290;50.158;8.658;2023-01-01T15:31:46;14.00;99.90
35111;DHT22;21290;50.158;8.658;2023-01-01T15:34:28;13.90;99.90
35111;DHT22;21290;50.158;8.658;2023-01-01T15:36:55;13.90;99.90
35111;DHT22;21290;50.158;8.658;2023-01-01T15:39:22;13.90;99.90
35111;DHT22;21290;50.158;8.658;2023-01-01T15:41:50;13.90;99.90
35111;DHT22;21290;50.158;8.658;2023-01-01T15:44:17;13.90;99.90
35111;DHT22;21290;50.158;8.658;2023-01-01T15:46:45;13.90;99.90
35111;DHT22;21290;50.158;8.658;2023-01-01T15:49:28;13.90;99.90
35111;DHT22;21290;50.158;8.658;2023-01-01T15:51:55;13.90;99.90
35111;DHT22;21290;50.158;8.658;2023-01-01T15:54:23;13.90;99.90
35111;DHT22;21290;50.158;8.658;2023-01-01T15:56:50;13.90;99.90
35111;DHT22;21290;50.158;8.658;2023-01-01T15:59:27;14.00;99.90
35111;DHT22;21290;50.158;8.658;2023-01-01T16:02:02;14.00;99.90
35111;DHT22;21290;50.158;8.658;2023-01-01T16:04:30;14.00;99.90
35111;DHT22;21290;50.158;8.658;2023-01-01T16:06:57;13.90;99.90
35111;DHT22;21290;50.158;8.658;2023-01-01T16:09:24;13.90;99.90
35111;DHT22;21290;50.158;8.658;2023-01-01T16:11:51;13.90;99.90
35111;DHT22;21290;50.158;8.658;2023-01-01T16:14:17;13.90;99.90
35111;DHT22;21290;50.158;8.658;2023-01-01T16:16:46;13.90;99.90
35111;DHT22;21290;50.158;8.658;2023-01-01T16:19:17;13.90;99.90
35111;DHT22;21290;50.158;8.658;2023-01-01T16:21:44;13.80;99.90
35111;DHT22;21290;50.158;8.658;2023-01-01T16:24:12;13.80;99.90
35111;DHT22;21290;50.158;8.658;2023-01-01T16:26:40;13.80;99.90
35111;DHT22;21290;50.158;8.658;2023-01-01T16:29:07;13.80;99.90
35111;DHT22;21290;50.158;8.658;2023-01-01T16:31:33;13.80;99.90
35111;DHT22;21290;50.158;8.658;2023-01-01T16:34:00;13.70;99.90
35111;DHT22;21290;50.158;8.658;2023-01-01T16:36:27;13.70;99.90
35111;DHT22;21290;50.158;8.658;2023-01-01T16:38:55;13.70;99.90
35111;DHT22;21290;50.158;8.658;2023-01-01T16:41:21;13.70;99.90
35111;DHT22;21290;50.158;8.658;2023-01-01T16:43:48;13.70;99.90
35111;DHT22;21290;50.158;8.658;2023-01-01T16:46:15;13.70;99.90
35111;DHT22;21290;50.158;8.658;2023-01-01T16:48:42;13.60;99.90
35111;DHT22;21290;50.158;8.658;2023-01-01T16:51:30;13.60;99.90
35111;DHT22;21290;50.158;8.658;2023-01-01T16:53:56;13.60;99.90
35111;DHT22;21290;50.158;8.658;2023-01-01T16:56:22;13.60;99.90
35111;DHT22;21290;50.158;8.658;2023-01-01T16:58:49;13.60;99.90
35111;DHT22;21290;50.158;8.658;2023-01-01T17:01:23;13.50;99.90
35111;DHT22;21290;50.158;8.658;2023-01-01T17:03:50;13.60;99.90
35111;DHT22;21290;50.158;8.658;2023-01-01T17:06:17;13.60;99.90
35111;DHT22;21290;50.158;8.658;2023-01-01T17:08:43;13.60;99.90
35111;DHT22;21290;50.158;8.658;2023-01-01T17:11:10;13.50;99.90
35111;DHT22;21290;50.158;8.658;2023-01-01T17:13:40;13.50;99.90
35111;DHT22;21290;50.158;8.658;2023-01-01T17:16:07;13.50;99.90
35111;DHT22;21290;50.158;8.658;2023-01-01T17:18:33;13.50;99.90
35111;DHT22;21290;50.158;8.658;2023-01-01T17:21:20;13.60;99.90
35111;DHT22;21290;50.158;8.658;2023-01-01T17:23:47;13.60;99.90
35111;DHT22;21290;50.158;8.658;2023-01-01T17:26:15;13.60;99.90
35111;DHT22;21290;50.158;8.658;2023-01-01T17:28:42;13.60;99.90